createdAt,value
2019-01-04T00:01:53.244Z,97051.16
2019-01-04T00:04:24.959Z,97052.02
2019-01-04T00:06:54.142Z,97042.23
2019-01-04T00:09:23.371Z,97054.62
2019-01-04T00:11:52.953Z,97037.06
2019-01-04T00:14:22.524Z,97055.44
2019-01-04T00:16:51.712Z,97055.84
2019-01-04T00:22:16.422Z,97063.45
2019-01-04T00:25:04.778Z,97067.16
2019-01-04T00:27:33.971Z,97060.78
2019-01-04T00:30:03.151Z,97056.84
2019-01-04T00:32:32.360Z,97049.62
2019-01-04T00:35:01.528Z,97057.25
2019-01-04T00:37:30.726Z,97056.39
2019-01-04T00:40:00.300Z,97060.74
2019-01-04T00:42:29.481Z,97054.27
2019-01-04T00:44:58.680Z,97061.07
2019-01-04T00:47:27.865Z,97060.77
2019-01-04T00:49:57.051Z,97057.81
2019-01-04T00:52:26.257Z,97066.78
2019-01-04T00:58:28.938Z,97068.95
2019-01-04T01:01:36.214Z,97063.31
2019-01-04T01:04:43.504Z,97058.25
2019-01-04T01:07:50.790Z,97062.55
2019-01-04T01:10:58.172Z,97054.83
2019-01-04T01:14:05.445Z,97057.38
2019-01-04T01:17:12.718Z,97066.64
2019-01-04T01:20:26.775Z,97070.97
2019-01-04T01:26:56.380Z,97056.89
2019-01-04T01:30:03.659Z,97058.95
2019-01-04T01:32:54.600Z,97068.37
2019-01-04T01:36:01.853Z,97074.75
2019-01-04T01:39:09.157Z,97064.47
2019-01-04T01:42:16.409Z,97065.30
2019-01-04T01:45:23.691Z,97064.91
2019-01-04T01:48:30.971Z,97061.90
2019-01-04T01:51:26.477Z,97068.25
2019-01-04T01:53:55.689Z,97067.88
2019-01-04T01:56:24.881Z,97067.33
2019-01-04T01:58:54.198Z,97070.73
2019-01-04T02:01:23.376Z,97069.10
2019-01-04T02:03:52.600Z,97065.20
2019-01-04T02:06:21.804Z,97063.55
2019-01-04T02:08:51.371Z,97069.48
2019-01-04T02:11:20.555Z,97074.20
2019-01-04T02:13:49.763Z,97076.27
2019-01-04T02:16:19.268Z,97082.20
2019-01-04T02:18:48.476Z,97085.67
2019-01-04T02:21:18.009Z,97086.99
2019-01-04T02:23:47.219Z,97091.63
2019-01-04T02:26:16.404Z,97087.77
2019-01-04T02:28:45.606Z,97091.13
2019-01-04T02:31:15.166Z,97083.99
2019-01-04T02:33:44.374Z,97086.14
2019-01-04T02:36:13.561Z,97083.09
2019-01-04T02:38:42.793Z,97081.89
2019-01-04T02:41:11.979Z,97077.69
2019-01-04T02:43:41.564Z,97073.78
2019-01-04T02:46:11.068Z,97071.20
2019-01-04T02:48:40.268Z,97071.98
2019-01-04T02:51:09.447Z,97077.98
2019-01-04T02:53:38.645Z,97075.37
2019-01-04T02:56:07.831Z,97077.41
2019-01-04T02:58:37.041Z,97071.39
2019-01-04T03:03:56.361Z,97070.66
2019-01-04T03:06:25.848Z,97062.83
2019-01-04T03:08:55.350Z,97067.85
2019-01-04T03:11:24.857Z,97058.07
2019-01-04T03:13:54.067Z,97046.02
2019-01-04T03:16:23.250Z,97050.61
2019-01-04T03:18:52.458Z,97047.50
2019-01-04T03:21:21.648Z,97047.11
2019-01-04T03:23:50.854Z,97039.11
2019-01-04T03:26:20.029Z,97048.92
2019-01-04T03:28:49.228Z,97052.34
2019-01-04T03:31:18.400Z,97052.45
2019-01-04T03:33:47.601Z,97045.14
2019-01-04T03:36:16.792Z,97043.36
2019-01-04T03:38:45.993Z,97039.95
2019-01-04T03:41:15.202Z,97033.92
2019-01-04T03:43:51.260Z,97033.89
2019-01-04T03:46:20.449Z,97036.77
2019-01-04T03:48:49.624Z,97038.83
2019-01-04T03:51:18.831Z,97037.64
2019-01-04T03:53:48.383Z,97039.38
2019-01-04T03:56:17.587Z,97044.84
2019-01-04T03:58:46.769Z,97032.22
2019-01-04T04:01:15.992Z,97036.71
2019-01-04T04:03:45.189Z,97039.79
2019-01-04T04:06:14.766Z,97035.80
2019-01-04T04:08:43.952Z,97044.73
2019-01-04T04:11:13.192Z,97045.56
2019-01-04T04:13:42.419Z,97029.35
2019-01-04T04:16:11.626Z,97037.59
2019-01-04T04:18:40.807Z,97039.03
2019-01-04T04:21:10.015Z,97033.93
2019-01-04T04:23:39.189Z,97039.88
2019-01-04T04:26:08.399Z,97036.45
2019-01-04T04:28:37.582Z,97049.02
2019-01-04T04:31:06.786Z,97045.56
2019-01-04T04:33:35.972Z,97040.86
2019-01-04T04:36:05.454Z,97057.57
2019-01-04T04:38:34.661Z,97061.28
2019-01-04T04:41:03.871Z,97056.95
2019-01-04T04:43:33.363Z,97060.67
2019-01-04T04:46:02.579Z,97056.76
2019-01-04T04:48:31.764Z,97062.38
2019-01-04T04:51:00.967Z,97058.67
2019-01-04T04:53:30.141Z,97058.73
2019-01-04T04:55:59.355Z,97061.61
2019-01-04T04:58:28.526Z,97062.85
2019-01-04T05:00:57.734Z,97067.58
2019-01-04T05:03:26.915Z,97067.16
2019-01-04T05:05:56.124Z,97067.64
2019-01-04T05:08:25.308Z,97065.00
2019-01-04T05:10:54.513Z,97059.05
2019-01-04T05:13:23.700Z,97059.02
2019-01-04T05:15:52.912Z,97054.34
2019-01-04T05:18:22.089Z,97058.84
2019-01-04T05:20:51.295Z,97063.86
2019-01-04T05:23:20.481Z,97063.48
2019-01-04T05:25:49.691Z,97067.11
2019-01-04T05:28:18.875Z,97070.59
2019-01-04T05:30:48.079Z,97061.67
2019-01-04T05:33:17.264Z,97065.87
2019-01-04T05:35:46.471Z,97057.45
2019-01-04T05:38:15.658Z,97054.52
2019-01-04T05:40:45.198Z,97060.55
2019-01-04T05:43:14.390Z,97059.48
2019-01-04T05:45:43.604Z,97059.81
2019-01-04T05:48:13.069Z,97053.30
2019-01-04T05:50:42.264Z,97054.16
2019-01-04T05:53:11.451Z,97057.95
2019-01-04T05:55:40.651Z,97054.58
2019-01-04T05:58:09.831Z,97058.69
2019-01-04T06:00:39.032Z,97049.05
2019-01-04T06:03:08.213Z,97055.00
2019-01-04T06:05:37.422Z,97046.63
2019-01-04T06:08:06.608Z,97047.83
2019-01-04T06:10:35.796Z,97037.50
2019-01-04T06:13:05.004Z,97044.84
2019-01-04T06:15:34.182Z,97043.09
2019-01-04T06:18:03.387Z,97047.26
2019-01-04T06:20:32.566Z,97045.86
2019-01-04T06:23:01.767Z,97049.33
2019-01-04T06:25:30.950Z,97052.79
2019-01-04T06:28:00.443Z,97055.86
2019-01-04T06:30:29.973Z,97065.38
2019-01-04T06:32:59.179Z,97064.16
2019-01-04T06:35:28.358Z,97053.04
2019-01-04T06:37:57.557Z,97061.13
2019-01-04T06:40:26.759Z,97068.48
2019-01-04T06:42:55.972Z,97066.06
2019-01-04T06:45:25.154Z,97068.48
2019-01-04T06:47:54.363Z,97067.23
2019-01-04T06:50:23.561Z,97060.14
2019-01-04T06:52:52.763Z,97072.48
2019-01-04T06:56:01.595Z,97076.38
2019-01-04T06:58:30.797Z,97079.73
2019-01-04T07:00:59.984Z,97080.47
2019-01-04T07:03:29.198Z,97093.58
2019-01-04T07:05:58.382Z,97083.20
2019-01-04T07:08:27.905Z,97093.80
2019-01-04T07:10:57.087Z,97100.44
2019-01-04T07:13:26.301Z,97100.11
2019-01-04T07:15:55.481Z,97101.84
2019-01-04T07:18:24.699Z,97100.67
2019-01-04T07:20:54.084Z,97096.86
2019-01-04T07:23:24.050Z,97099.02
2019-01-04T07:25:54.587Z,97104.55
2019-01-04T07:28:23.813Z,97108.38
2019-01-04T07:30:53.003Z,97104.64
2019-01-04T07:33:22.217Z,97105.77
2019-01-04T07:35:51.477Z,97113.81
2019-01-04T07:38:20.684Z,97113.03
2019-01-04T07:40:49.888Z,97114.88
2019-01-04T07:43:19.095Z,97113.53
2019-01-04T07:45:48.308Z,97108.14
2019-01-04T07:48:17.646Z,97119.53
2019-01-04T07:50:46.827Z,97117.43
2019-01-04T07:53:16.027Z,97124.54
2019-01-04T07:55:45.216Z,97128.25
2019-01-04T07:58:14.557Z,97134.48
2019-01-04T08:00:43.746Z,97138.27
2019-01-04T08:03:19.460Z,97138.44
2019-01-04T08:05:48.677Z,97132.98
2019-01-04T08:08:17.882Z,97133.17
2019-01-04T08:10:47.063Z,97135.29
2019-01-04T08:13:16.272Z,97131.06
2019-01-04T08:15:45.458Z,97125.63
2019-01-04T08:18:14.658Z,97127.38
2019-01-04T08:20:43.836Z,97136.70
2019-01-04T08:23:13.425Z,97135.04
2019-01-04T08:25:42.690Z,97130.25
2019-01-04T08:28:12.236Z,97135.36
2019-01-04T08:30:41.433Z,97135.20
2019-01-04T08:33:10.631Z,97123.91
2019-01-04T08:35:39.940Z,97134.95
2019-01-04T08:38:09.172Z,97134.52
2019-01-04T08:40:38.476Z,97137.11
2019-01-04T08:43:07.691Z,97134.14
2019-01-04T08:45:36.886Z,97133.66
2019-01-04T08:48:06.097Z,97131.48
2019-01-04T08:50:35.276Z,97142.66
2019-01-04T08:53:04.495Z,97141.52
2019-01-04T08:55:34.014Z,97141.95
2019-01-04T08:58:03.217Z,97144.47
2019-01-04T09:00:32.720Z,97148.98
2019-01-04T09:03:01.911Z,97146.47
2019-01-04T09:05:31.121Z,97151.05
2019-01-04T09:08:00.349Z,97149.53
2019-01-04T09:10:29.550Z,97157.52
2019-01-04T09:12:58.738Z,97178.22
2019-01-04T09:15:28.334Z,97171.06
2019-01-04T09:17:57.524Z,97174.09
2019-01-04T09:20:26.762Z,97177.86
2019-01-04T09:22:56.280Z,97180.81
2019-01-04T09:25:25.492Z,97182.89
2019-01-04T09:27:54.880Z,97175.64
2019-01-04T09:30:24.109Z,97179.16
2019-01-04T09:32:53.298Z,97191.53
2019-01-04T09:35:22.807Z,97193.57
2019-01-04T09:37:51.996Z,97186.80
2019-01-04T09:43:16.628Z,97188.23
2019-01-04T09:45:45.840Z,97187.39
2019-01-04T09:48:15.125Z,97183.97
2019-01-04T09:50:44.384Z,97180.98
2019-01-04T09:53:13.579Z,97172.85
2019-01-04T09:55:42.804Z,97173.26
2019-01-04T09:58:11.998Z,97163.47
2019-01-04T10:00:41.622Z,97168.06
2019-01-04T10:03:10.816Z,97156.66
2019-01-04T10:05:40.350Z,97159.63
2019-01-04T10:08:09.931Z,97156.28
2019-01-04T10:10:39.119Z,97153.20
2019-01-04T10:13:08.341Z,97140.91
2019-01-04T10:15:37.524Z,97145.20
2019-01-04T10:18:06.716Z,97151.63
2019-01-04T10:20:36.226Z,97141.51
2019-01-04T10:23:05.412Z,97130.42
2019-01-04T10:25:34.635Z,97123.52
2019-01-04T10:28:04.361Z,97110.31
2019-01-04T10:30:33.604Z,97102.77
2019-01-04T10:33:02.921Z,97105.61
2019-01-04T10:35:32.436Z,97098.52
2019-01-04T10:38:01.681Z,97099.23
2019-01-04T10:40:30.958Z,97101.61
2019-01-04T10:43:00.568Z,97088.86
2019-01-04T10:45:29.776Z,97085.10
2019-01-04T10:47:58.970Z,97083.34
2019-01-04T10:50:28.157Z,97077.42
2019-01-04T10:52:57.354Z,97073.86
2019-01-04T10:55:26.546Z,97068.73
2019-01-04T10:57:55.769Z,97066.55
2019-01-04T11:00:25.227Z,97047.83
2019-01-04T11:02:54.439Z,97048.73
2019-01-04T11:05:23.633Z,97055.11
2019-01-04T11:07:52.839Z,97053.09
2019-01-04T11:10:22.132Z,97042.86
2019-01-04T11:12:51.357Z,97045.56
2019-01-04T11:15:20.824Z,97045.94
2019-01-04T11:17:50.427Z,97044.21
2019-01-04T11:20:39.586Z,97035.65
2019-01-04T11:23:46.877Z,97024.98
2019-01-04T11:26:37.363Z,97021.89
2019-01-04T11:29:45.181Z,97020.17
2019-01-04T11:32:52.439Z,97017.53
2019-01-04T11:35:46.015Z,97014.64
2019-01-04T11:38:53.419Z,97018.23
2019-01-04T11:41:56.187Z,97010.23
2019-01-04T11:45:03.933Z,97013.55
2019-01-04T11:47:57.678Z,97015.73
2019-01-04T11:50:53.790Z,97024.53
2019-01-04T11:53:23.446Z,97018.86
2019-01-04T11:55:52.666Z,97014.00
2019-01-04T11:58:22.204Z,97017.77
2019-01-04T12:00:51.426Z,97007.77
2019-01-04T12:03:20.623Z,97009.95
2019-01-04T12:05:50.550Z,97003.66
2019-01-04T12:08:19.737Z,97005.27
2019-01-04T12:10:48.944Z,96996.76
2019-01-04T12:13:18.203Z,96999.41
2019-01-04T12:15:47.414Z,96994.84
2019-01-04T12:18:16.628Z,96987.52
2019-01-04T12:20:46.150Z,96982.84
2019-01-04T12:23:15.363Z,96984.52
2019-01-04T12:25:44.914Z,96981.88
2019-01-04T12:28:14.440Z,96982.30
2019-01-04T12:30:43.616Z,96981.38
2019-01-04T12:33:13.227Z,96980.53
2019-01-04T12:35:42.413Z,96966.52
2019-01-04T12:38:11.697Z,96954.21
2019-01-04T12:40:41.262Z,96965.19
2019-01-04T12:43:10.476Z,96956.12
2019-01-04T12:45:39.968Z,96954.80
2019-01-04T12:48:09.148Z,96952.75
2019-01-04T12:50:38.378Z,96953.86
2019-01-04T12:53:07.598Z,96951.70
2019-01-04T12:55:36.819Z,96954.80
2019-01-04T12:58:06.004Z,96951.30
2019-01-04T13:00:35.210Z,96954.35
2019-01-04T13:03:04.718Z,96953.17
2019-01-04T13:05:34.015Z,96948.34
2019-01-04T13:08:03.210Z,96962.39
2019-01-04T13:10:32.421Z,96965.73
2019-01-04T13:13:02.120Z,96972.57
2019-01-04T13:15:31.377Z,96966.58
2019-01-04T13:18:00.861Z,96961.87
2019-01-04T13:20:30.106Z,96949.53
2019-01-04T13:22:59.315Z,96948.52
2019-01-04T13:28:05.304Z,96944.78
2019-01-04T13:30:34.618Z,96945.64
2019-01-04T13:33:04.333Z,96939.31
2019-01-04T13:35:33.586Z,96933.81
2019-01-04T13:38:02.822Z,96930.41
2019-01-04T13:40:32.027Z,96927.92
2019-01-04T13:43:01.282Z,96923.24
2019-01-04T13:45:30.484Z,96928.02
2019-01-04T13:47:59.784Z,96919.94
2019-01-04T13:50:29.150Z,96918.33
2019-01-04T13:52:58.636Z,96918.75
2019-01-04T13:55:27.852Z,96920.00
2019-01-04T13:57:57.074Z,96916.17
2019-01-04T14:00:26.290Z,96920.97
2019-01-04T14:02:55.523Z,96927.41
2019-01-04T14:05:24.741Z,96912.06
2019-01-04T14:07:55.251Z,96908.20
2019-01-04T14:10:24.974Z,96905.95
2019-01-04T14:12:54.319Z,96907.23
2019-01-04T14:15:23.522Z,96908.41
2019-01-04T14:17:53.073Z,96895.55
2019-01-04T14:20:22.286Z,96895.45
2019-01-04T14:22:51.556Z,96891.56
2019-01-04T14:25:20.807Z,96889.44
2019-01-04T14:27:50.029Z,96891.37
2019-01-04T14:33:09.083Z,96898.59
2019-01-04T14:35:38.361Z,96899.81
2019-01-04T14:38:07.633Z,96893.78
2019-01-04T14:40:36.859Z,96899.75
2019-01-04T14:43:06.428Z,96886.62
2019-01-04T14:45:35.632Z,96887.99
2019-01-04T14:48:05.028Z,96883.67
2019-01-04T14:50:34.237Z,96869.17
2019-01-04T14:53:03.466Z,96870.06
2019-01-04T14:55:32.679Z,96868.36
2019-01-04T14:58:01.877Z,96854.84
2019-01-04T15:00:31.203Z,96831.19
2019-01-04T15:03:00.429Z,96838.25
2019-01-04T15:05:29.607Z,96828.41
2019-01-04T15:07:58.841Z,96835.67
2019-01-04T15:10:28.048Z,96838.08
2019-01-04T15:12:57.270Z,96839.92
2019-01-04T15:15:26.445Z,96837.76
2019-01-04T15:17:55.670Z,96830.45
2019-01-04T15:20:24.870Z,96830.67
2019-01-04T15:22:54.090Z,96822.19
2019-01-04T15:25:23.297Z,96820.84
2019-01-04T15:27:52.513Z,96822.48
2019-01-04T15:30:21.718Z,96820.35
2019-01-04T15:32:50.928Z,96835.27
2019-01-04T15:35:20.118Z,96828.57
2019-01-04T15:37:49.351Z,96822.27
2019-01-04T15:40:18.547Z,96828.21
2019-01-04T15:42:47.760Z,96829.00
2019-01-04T15:45:16.948Z,96829.39
2019-01-04T15:47:46.150Z,96817.02
2019-01-04T15:50:15.380Z,96817.09
2019-01-04T15:52:44.616Z,96816.98
2019-01-04T15:55:13.797Z,96816.98
2019-01-04T15:57:43.013Z,96816.23
2019-01-04T16:00:13.727Z,96815.21
2019-01-04T16:02:42.935Z,96801.95
2019-01-04T16:05:12.122Z,96806.73
2019-01-04T16:07:41.365Z,96813.19
2019-01-04T16:10:10.975Z,96806.59
2019-01-04T16:12:40.473Z,96813.26
2019-01-04T16:15:10.272Z,96808.83
2019-01-04T16:17:39.447Z,96808.44
2019-01-04T16:20:09.961Z,96792.55
2019-01-04T16:22:39.171Z,96807.94
2019-01-04T16:25:08.882Z,96807.52
2019-01-04T16:27:38.206Z,96811.77
2019-01-04T16:30:09.833Z,96815.11
2019-01-04T16:32:39.064Z,96798.90
2019-01-04T16:35:08.628Z,96801.03
2019-01-04T16:37:37.842Z,96794.57
2019-01-04T16:40:07.670Z,96803.47
2019-01-04T16:42:36.838Z,96805.21
2019-01-04T16:45:06.224Z,96816.03
2019-01-04T16:47:35.406Z,96815.17
2019-01-04T16:50:05.228Z,96816.38
2019-01-04T16:52:34.463Z,96808.26
2019-01-04T16:55:03.656Z,96817.66
2019-01-04T16:57:33.251Z,96817.09
2019-01-04T17:00:02.457Z,96822.83
2019-01-04T17:02:31.769Z,96817.59
2019-01-04T17:05:00.963Z,96827.83
2019-01-04T17:07:30.162Z,96805.85
2019-01-04T17:09:59.367Z,96817.27
2019-01-04T17:12:28.841Z,96818.16
2019-01-04T17:14:58.073Z,96822.34
2019-01-04T17:17:27.257Z,96827.52
2019-01-04T17:19:56.439Z,96822.48
2019-01-04T17:22:25.644Z,96820.31
2019-01-04T17:28:03.394Z,96823.69
2019-01-04T17:30:32.581Z,96825.03
2019-01-04T17:33:01.792Z,96814.39
2019-01-04T17:35:30.990Z,96832.27
2019-01-04T17:38:00.196Z,96833.97
2019-01-04T17:40:29.450Z,96838.25
2019-01-04T17:42:58.949Z,96843.58
2019-01-04T17:45:28.131Z,96837.16
2019-01-04T17:47:57.644Z,96838.86
2019-01-04T17:50:26.841Z,96837.27
2019-01-04T17:52:56.030Z,96824.61
2019-01-04T17:55:25.241Z,96823.30
2019-01-04T17:57:54.423Z,96821.13
2019-01-04T18:03:00.938Z,96817.77
2019-01-04T18:05:30.655Z,96817.41
2019-01-04T18:07:59.831Z,96816.13
2019-01-04T18:10:29.014Z,96808.16
2019-01-04T18:12:58.497Z,96794.79
2019-01-04T18:15:27.694Z,96790.50
2019-01-04T18:17:58.706Z,96774.77
2019-01-04T18:20:27.786Z,96758.16
2019-01-04T18:22:56.999Z,96758.28
2019-01-04T18:25:26.170Z,96751.55
2019-01-04T18:27:55.403Z,96756.58
2019-01-04T18:30:24.582Z,96761.25
2019-01-04T18:32:53.768Z,96776.61
2019-01-04T18:35:22.979Z,96784.23
2019-01-04T18:37:52.218Z,96765.44
2019-01-04T18:40:21.433Z,96762.38
2019-01-04T18:42:50.952Z,96761.14
2019-01-04T18:45:20.272Z,96756.89
2019-01-04T18:47:49.467Z,96742.84
2019-01-04T18:50:22.277Z,96749.08
2019-01-04T18:52:51.446Z,96734.34
2019-01-04T18:55:20.676Z,96725.75
2019-01-04T18:57:50.306Z,96731.28
2019-01-04T19:00:19.841Z,96727.84
2019-01-04T19:02:49.048Z,96729.89
2019-01-04T19:05:18.550Z,96732.52
2019-01-04T19:07:47.759Z,96738.91
2019-01-04T19:10:17.249Z,96744.90
2019-01-04T19:12:46.452Z,96738.91
2019-01-04T19:15:15.949Z,96732.17
2019-01-04T19:17:45.132Z,96726.22
2019-01-04T19:20:14.344Z,96732.48
2019-01-04T19:22:43.523Z,96728.70
2019-01-04T19:25:12.699Z,96718.41
2019-01-04T19:27:41.948Z,96715.85
2019-01-04T19:30:11.236Z,96722.73
2019-01-04T19:32:40.445Z,96732.41
2019-01-04T19:35:10.042Z,96751.59
2019-01-04T19:37:39.251Z,96749.55
2019-01-04T19:40:08.609Z,96760.72
2019-01-04T19:42:37.804Z,96765.78
2019-01-04T19:45:07.132Z,96763.70
2019-01-04T19:47:36.309Z,96769.23
2019-01-04T19:50:24.686Z,96779.02
2019-01-04T19:52:53.890Z,96775.19
2019-01-04T19:55:23.093Z,96751.74
2019-01-04T19:57:52.267Z,96746.80
2019-01-04T20:00:21.442Z,96752.67
2019-01-04T20:02:50.681Z,96747.11
2019-01-04T20:05:59.856Z,96745.41
2019-01-04T20:09:26.052Z,96740.10
2019-01-04T20:12:52.662Z,96744.78
2019-01-04T20:16:05.509Z,96746.02
2019-01-04T20:18:53.930Z,96742.00
2019-01-04T20:21:42.052Z,96736.93
2019-01-04T20:24:30.469Z,96719.05
2019-01-04T20:27:18.770Z,96730.66
2019-01-04T20:30:06.900Z,96730.23
2019-01-04T20:32:55.013Z,96731.20
2019-01-04T20:35:43.473Z,96744.40
2019-01-04T20:38:31.995Z,96747.30
2019-01-04T20:41:20.126Z,96746.87
2019-01-04T20:44:08.591Z,96743.55
2019-01-04T20:46:56.749Z,96755.07
2019-01-04T20:49:44.887Z,96766.56
2019-01-04T20:52:33.016Z,96767.38
2019-01-04T20:55:21.430Z,96759.75
2019-01-04T20:58:09.544Z,96763.91
2019-01-04T21:00:57.961Z,96757.35
2019-01-04T21:03:46.112Z,96764.30
2019-01-04T21:06:34.457Z,96764.77
2019-01-04T21:09:22.569Z,96759.73
2019-01-04T21:12:10.715Z,96762.72
2019-01-04T21:14:58.837Z,96766.01
2019-01-04T21:17:46.982Z,96771.22
2019-01-04T21:20:35.382Z,96773.03
2019-01-04T21:23:23.550Z,96775.08
2019-01-04T21:26:11.980Z,96779.41
2019-01-04T21:29:00.126Z,96775.16
2019-01-04T21:31:48.241Z,96776.00
2019-01-04T21:34:36.406Z,96775.90
2019-01-04T21:37:24.527Z,96764.13
2019-01-04T21:40:12.675Z,96769.16
2019-01-04T21:43:00.797Z,96790.99
2019-01-04T21:45:48.943Z,96763.45
2019-01-04T21:48:37.092Z,96749.78
2019-01-04T21:51:20.219Z,96757.92
2019-01-04T21:54:08.335Z,96767.17
2019-01-04T21:56:56.487Z,96760.41
2019-01-04T21:59:44.784Z,96744.84
2019-01-04T22:02:32.947Z,96760.48
2019-01-04T22:05:21.052Z,96771.98
2019-01-04T22:08:09.202Z,96758.84
2019-01-04T22:10:57.324Z,96755.48
2019-01-04T22:13:45.489Z,96747.79
2019-01-04T22:16:33.618Z,96761.43
2019-01-04T22:19:21.787Z,96755.84
2019-01-04T22:22:09.915Z,96754.20
2019-01-04T22:24:58.058Z,96749.00
2019-01-04T22:27:38.649Z,96751.66
2019-01-04T22:30:27.499Z,96753.67
2019-01-04T22:33:15.615Z,96755.30
2019-01-04T22:36:04.187Z,96745.48
2019-01-04T22:38:43.114Z,96749.35
2019-01-04T22:41:31.260Z,96737.88
2019-01-04T22:44:19.374Z,96734.40
2019-01-04T22:47:07.520Z,96737.38
2019-01-04T22:49:55.639Z,96738.30
2019-01-04T22:52:43.791Z,96728.12
2019-01-04T22:55:31.913Z,96725.82
2019-01-04T22:58:20.250Z,96722.03
2019-01-04T23:01:28.823Z,96717.46
2019-01-04T23:04:16.968Z,96713.10
2019-01-04T23:07:05.088Z,96697.86
2019-01-04T23:09:53.512Z,96701.16
2019-01-04T23:12:41.639Z,96700.30
2019-01-04T23:15:30.200Z,96714.34
2019-01-04T23:18:18.309Z,96691.80
2019-01-04T23:21:06.454Z,96714.77
2019-01-04T23:23:55.091Z,96718.13
2019-01-04T23:26:43.280Z,96699.02
2019-01-04T23:29:31.423Z,96715.30
2019-01-04T23:32:19.599Z,96716.54
2019-01-04T23:35:08.480Z,96710.52
2019-01-04T23:37:56.674Z,96706.95
2019-01-04T23:40:44.790Z,96704.75
2019-01-04T23:43:32.935Z,96698.88
2019-01-04T23:46:21.060Z,96705.61
2019-01-04T23:48:59.095Z,96695.82
2019-01-04T23:51:47.226Z,96684.77
2019-01-04T23:54:35.370Z,96696.17
2019-01-04T23:57:23.496Z,96694.00
